C9AUF FQMA-FQMA

Flight info

Callsign C9AUF
Flight time 0h 8m
Altitude 3500
Route DCT
Aircraft C182/L-SDGRY/S

Departure

Time 2026-04-28 20:44
Airport Maputo Airport (FQMA)

Arrival

Time 2026-04-28 20:53
Airport Maputo Airport (FQMA)
Time Latitude Longitude Altitude Speed Heading
2026-04-28 20:36 -25.92769 32.56429 122 ft 0 kts 251°
2026-04-28 20:39 -25.92775 32.56426 122 ft 4 kts 168°
2026-04-28 20:40 -25.92770 32.56468 121 ft 8 kts 66°
2026-04-28 20:40 -25.92772 32.56528 121 ft 9 kts 120°
2026-04-28 20:40 -25.92806 32.56597 122 ft 12 kts 118°
2026-04-28 20:40 -25.92856 32.56695 122 ft 17 kts 118°
2026-04-28 20:41 -25.92925 32.56831 122 ft 23 kts 120°
2026-04-28 20:41 -25.92952 32.56951 123 ft 13 kts 51°
2026-04-28 20:41 -25.92880 32.57004 123 ft 13 kts 32°
2026-04-28 20:41 -25.92799 32.57055 123 ft 14 kts 30°
2026-04-28 20:42 -25.92703 32.57113 121 ft 17 kts 28°
2026-04-28 20:42 -25.92596 32.57180 123 ft 16 kts 26°
2026-04-28 20:42 -25.92532 32.57158 121 ft 10 kts 301°
2026-04-28 20:42 -25.92497 32.57094 123 ft 9 kts 300°
2026-04-28 20:43 -25.92465 32.57040 122 ft 8 kts 340°
2026-04-28 20:43 -25.92404 32.57054 125 ft 16 kts 27°
2026-04-28 20:43 -25.92128 32.57225 125 ft 75 kts 27°
2026-04-28 20:43 -25.91544 32.57573 256 ft 103 kts 24°
2026-04-28 20:44 -25.90875 32.57938 498 ft 113 kts 23°
2026-04-28 20:44 -25.90124 32.58309 722 ft 122 kts 23°
2026-04-28 20:44 -25.89333 32.58713 984 ft 128 kts 31°
2026-04-28 20:44 -25.88505 32.59215 1048 ft 137 kts 33°
2026-04-28 20:45 -25.87724 32.59712 993 ft 126 kts 34°
2026-04-28 20:45 -25.86976 32.60205 878 ft 122 kts 26°
2026-04-28 20:45 -25.86185 32.60124 769 ft 115 kts 320°
2026-04-28 20:45 -25.85825 32.59430 699 ft 98 kts 268°
2026-04-28 20:46 -25.85970 32.58748 663 ft 84 kts 233°
2026-04-28 20:46 -25.86388 32.58355 623 ft 78 kts 209°
2026-04-28 20:46 -25.86847 32.58024 591 ft 82 kts 210°
2026-04-28 20:46 -25.87379 32.57734 547 ft 88 kts 199°
2026-04-28 20:47 -25.87962 32.57661 516 ft 88 kts 167°
2026-04-28 20:47 -25.88532 32.57699 532 ft 79 kts 196°
2026-04-28 20:47 -25.88960 32.57352 564 ft 75 kts 218°
2026-04-28 20:47 -25.89396 32.56973 459 ft 84 kts 218°
2026-04-28 20:48 -25.89875 32.56607 483 ft 83 kts 214°
2026-04-28 20:48 -25.90368 32.56229 520 ft 89 kts 216°
2026-04-28 20:48 -25.90876 32.55815 774 ft 95 kts 213°
2026-04-28 20:48 -25.91412 32.55316 995 ft 103 kts 216°
2026-04-28 20:49 -25.91996 32.54741 1066 ft 119 kts 218°
2026-04-28 20:49 -25.92574 32.54148 1031 ft 104 kts 218°
2026-04-28 20:49 -25.93132 32.53677 859 ft 99 kts 212°
2026-04-28 20:49 -25.93680 32.53291 739 ft 92 kts 210°
2026-04-28 20:50 -25.94267 32.53276 670 ft 92 kts 161°
2026-04-28 20:50 -25.94712 32.53812 559 ft 97 kts 136°
2026-04-28 20:50 -25.94980 32.54211 484 ft 98 kts 139°
2026-04-28 20:50 -25.95355 32.54828 424 ft 98 kts 116°
2026-04-28 20:51 -25.95347 32.55585 406 ft 98 kts 86°
2026-04-28 20:51 -25.94914 32.56142 305 ft 100 kts 13°
2026-04-28 20:51 -25.94245 32.56245 351 ft 87 kts 354°
2026-04-28 20:51 -25.93685 32.56369 354 ft 81 kts
2026-04-28 20:52 -25.92985 32.56699 264 ft 85 kts 26°
2026-04-28 20:52 -25.92630 32.56910 228 ft 87 kts 26°
2026-04-28 20:52 -25.92098 32.57237 188 ft 88 kts 26°
2026-04-28 20:52 -25.91567 32.57565 154 ft 86 kts 25°
2026-04-28 20:53 -25.90702 32.58092 138 ft 34 kts 31°
2026-04-28 20:53 -25.90577 32.58169 139 ft 18 kts 31°
2026-04-28 20:53 -25.90506 32.58216 140 ft 10 kts 28°
2026-04-28 20:54 -25.90454 32.58248 141 ft 8 kts 30°
2026-04-28 20:54 -25.90415 32.58281 142 ft 7 kts 34°
2026-04-28 20:54 -25.90380 32.58322 143 ft 8 kts 59°
2026-04-28 20:54 -25.90399 32.58418 143 ft 20 kts 124°
2026-04-28 20:55 -25.90482 32.58441 143 ft 12 kts 210°
2026-04-28 20:55 -25.90556 32.58394 142 ft 13 kts 210°
2026-04-28 20:55 -25.90637 32.58347 141 ft 14 kts 206°
2026-04-28 20:55 -25.90723 32.58294 140 ft 14 kts 210°
2026-04-28 20:56 -25.90811 32.58241 140 ft 14 kts 208°
2026-04-28 20:56 -25.90900 32.58186 139 ft 15 kts 207°
2026-04-28 20:56 -25.91014 32.58117 138 ft 22 kts 208°
2026-04-28 20:56 -25.91169 32.58021 136 ft 28 kts 208°
2026-04-28 20:57 -25.91347 32.57913 135 ft 29 kts 209°
2026-04-28 20:57 -25.91527 32.57803 133 ft 30 kts 209°
2026-04-28 20:57 -25.91708 32.57691 131 ft 30 kts 208°
2026-04-28 20:57 -25.91891 32.57581 129 ft 30 kts 209°
2026-04-28 20:58 -25.92069 32.57467 125 ft 30 kts 210°
2026-04-28 20:58 -25.92248 32.57362 127 ft 29 kts 211°
2026-04-28 20:58 -25.92425 32.57253 125 ft 29 kts 209°
2026-04-28 20:58 -25.92613 32.57166 123 ft 30 kts 201°
2026-04-28 20:59 -25.92792 32.57059 123 ft 29 kts 208°
2026-04-28 20:59 -25.92950 32.56961 122 ft 15 kts 220°
2026-04-28 20:59 -25.92934 32.56847 120 ft 18 kts 300°
2026-04-28 20:59 -25.92865 32.56711 122 ft 22 kts 300°
2026-04-28 21:00 -25.92788 32.56552 122 ft 25 kts 300°
2026-04-28 21:00 -25.92750 32.56447 122 ft 6 kts 255°
2026-04-28 21:00 -25.92759 32.56418 122 ft 0 kts 252°